Terminal Aerodrome Forecast
Issued by NWS

Home | Current Version | Previous Version | Text Only | Print | Product List | Glossary On
Versions: 1 2 3 4 5 6 7 8 9 10 11 12 13 14 15 16
198
FTUS46 KSEW 110905 AAA
TAFBFI
TAF AMD
KBFI 110905Z 1109/1206 VRB03KT P6SM SCT020 BKN200
      TEMPO 1109/1112 3SM BR
     FM111600 VRB04KT P6SM SCT020 BKN050
     FM112100 12006KT P6SM -RA OVC040
     FM120200 16006KT 5SM -RA OVC030=

USA.gov is the U.S. government's official web portal to all federal, state and local government web resources and services.